createdAt,value
2023-01-30T00:01:27.428Z,0.51
2023-01-30T00:03:58.286Z,0.48
2023-01-30T00:06:27.424Z,0.37
2023-01-30T00:08:56.929Z,0.35
2023-01-30T00:11:27.157Z,0.38
2023-01-30T00:13:55.795Z,0.34
2023-01-30T00:16:24.908Z,0.31
2023-01-30T00:18:54.028Z,0.31
2023-01-30T00:21:24.394Z,0.27
2023-01-30T00:23:53.838Z,0.23
2023-01-30T00:26:23.044Z,0.24
2023-01-30T00:28:51.636Z,0.25
2023-01-30T00:31:20.455Z,0.23
2023-01-30T00:33:49.319Z,0.20
2023-01-30T00:36:17.806Z,0.18
2023-01-30T00:38:48.355Z,0.14
2023-01-30T00:41:17.617Z,0.11
2023-01-30T00:44:16.697Z,0.11
2023-01-30T00:47:02.620Z,0.09
2023-01-30T00:49:31.955Z,0.08
2023-01-30T00:52:00.665Z,0.06
2023-01-30T00:54:30.943Z,0.02
2023-01-30T00:56:59.504Z,0.00
2023-01-30T00:59:28.363Z,-0.01
2023-01-30T01:01:57.220Z,-0.09
2023-01-30T01:04:25.965Z,-0.09
2023-01-30T01:06:54.925Z,-0.12
2023-01-30T01:09:23.531Z,-0.11
2023-01-30T01:11:53.926Z,-0.15
2023-01-30T01:14:22.776Z,-0.19
2023-01-30T01:16:51.685Z,-0.20
2023-01-30T01:19:20.741Z,-0.28
2023-01-30T01:21:50.529Z,-0.30
2023-01-30T01:24:19.882Z,-0.30
2023-01-30T01:26:48.778Z,-0.32
2023-01-30T01:29:19.532Z,-0.36
2023-01-30T01:31:48.358Z,-0.34
2023-01-30T01:34:16.953Z,-0.36
2023-01-30T01:36:54.454Z,-0.41
2023-01-30T01:39:24.048Z,-0.43
2023-01-30T01:41:51.877Z,-0.42
2023-01-30T01:44:23.179Z,-0.51
2023-01-30T01:46:55.678Z,-0.49
2023-01-30T01:49:27.079Z,-0.44
2023-01-30T01:51:59.362Z,-0.43
2023-01-30T01:54:34.967Z,-0.44
2023-01-30T01:57:07.212Z,-0.45
2023-01-30T01:59:42.100Z,-0.45
2023-01-30T02:02:14.743Z,-0.46
2023-01-30T02:05:07.039Z,-0.47
2023-01-30T02:07:39.279Z,-0.53
2023-01-30T02:10:11.413Z,-0.48
2023-01-30T02:12:41.242Z,-0.48
2023-01-30T02:15:13.621Z,-0.48
2023-01-30T02:17:42.108Z,-0.45
2023-01-30T02:20:23.084Z,-0.45
2023-01-30T02:23:13.903Z,-0.43
2023-01-30T02:26:23.187Z,-0.45
2023-01-30T02:29:20.064Z,-0.43
2023-01-30T02:32:01.778Z,-0.43
2023-01-30T02:34:42.740Z,-0.41
2023-01-30T02:37:22.839Z,-0.42
2023-01-30T02:40:09.407Z,-0.49
2023-01-30T02:42:46.240Z,-0.41
2023-01-30T02:45:23.983Z,-0.43
2023-01-30T02:47:59.720Z,-0.41
2023-01-30T02:50:31.877Z,-0.41
2023-01-30T02:53:00.383Z,-0.37
2023-01-30T02:55:30.283Z,-0.37
2023-01-30T02:57:59.003Z,-0.39
2023-01-30T03:00:52.612Z,-0.32
2023-01-30T03:03:40.138Z,-0.29
2023-01-30T03:06:31.242Z,-0.30
2023-01-30T03:09:09.134Z,-0.26
2023-01-30T03:11:46.264Z,-0.23
2023-01-30T03:14:23.923Z,-0.21
2023-01-30T03:16:55.886Z,-0.25
2023-01-30T03:19:26.211Z,-0.32
2023-01-30T03:21:54.946Z,-0.17
2023-01-30T03:24:23.426Z,-0.21
2023-01-30T03:27:00.109Z,-0.21
2023-01-30T03:29:28.489Z,-0.14
2023-01-30T03:31:58.298Z,-0.12
2023-01-30T03:34:28.130Z,-0.14
2023-01-30T03:36:57.083Z,-0.11
2023-01-30T03:39:26.166Z,-0.11
2023-01-30T03:41:55.123Z,-0.13
2023-01-30T03:44:23.782Z,-0.10
2023-01-30T03:46:52.289Z,-0.12
2023-01-30T03:49:20.938Z,-0.14
2023-01-30T03:51:50.761Z,-0.09
2023-01-30T03:54:22.378Z,-0.10
2023-01-30T03:56:50.805Z,-0.10
2023-01-30T03:59:19.239Z,-0.09
2023-01-30T04:01:47.652Z,-0.11
2023-01-30T04:04:16.095Z,-0.07
2023-01-30T04:06:44.600Z,-0.09
2023-01-30T04:09:14.519Z,-0.06
2023-01-30T04:11:43.040Z,-0.05
2023-01-30T04:14:11.426Z,-0.04
2023-01-30T04:16:39.915Z,-0.04
2023-01-30T04:19:08.437Z,-0.03
2023-01-30T04:21:36.883Z,-0.01
2023-01-30T04:24:05.837Z,0.02
2023-01-30T04:26:35.734Z,0.03
2023-01-30T04:29:04.294Z,0.05
2023-01-30T04:31:32.822Z,0.09
2023-01-30T04:34:01.288Z,0.09
2023-01-30T04:36:30.454Z,0.12
2023-01-30T04:38:59.350Z,0.09
2023-01-30T04:41:27.811Z,0.12
2023-01-30T04:43:57.679Z,0.13
2023-01-30T04:46:26.148Z,0.13
2023-01-30T04:48:54.802Z,0.14
2023-01-30T04:51:23.318Z,0.14
2023-01-30T04:53:51.775Z,0.17
2023-01-30T04:56:20.228Z,0.18
2023-01-30T04:58:48.607Z,0.17
2023-01-30T05:01:23.995Z,0.20
2023-01-30T05:03:53.035Z,0.20
2023-01-30T05:06:21.667Z,0.25
2023-01-30T05:08:51.196Z,0.29
2023-01-30T05:11:20.243Z,0.33
2023-01-30T05:13:49.169Z,0.36
2023-01-30T05:16:21.281Z,0.40
2023-01-30T05:18:49.971Z,0.46
2023-01-30T05:21:19.817Z,0.46
2023-01-30T05:23:48.844Z,0.48
2023-01-30T05:26:17.932Z,0.47
2023-01-30T05:28:46.414Z,0.48
2023-01-30T05:31:16.033Z,0.47
2023-01-30T05:33:49.027Z,0.44
2023-01-30T05:36:18.695Z,0.45
2023-01-30T05:38:47.785Z,0.46
2023-01-30T05:41:17.785Z,0.48
2023-01-30T05:43:46.520Z,0.47
2023-01-30T05:46:15.011Z,0.44
2023-01-30T05:48:43.515Z,0.48
2023-01-30T05:51:19.828Z,0.51
2023-01-30T05:53:48.973Z,0.43
2023-01-30T05:56:18.247Z,0.45
2023-01-30T05:58:52.306Z,0.45
2023-01-30T06:01:21.178Z,0.45
2023-01-30T06:03:50.236Z,0.45
2023-01-30T06:06:20.324Z,0.48
2023-01-30T06:08:48.855Z,0.47
2023-01-30T06:11:18.876Z,0.52
2023-01-30T06:13:47.677Z,0.50
2023-01-30T06:16:17.748Z,0.60
2023-01-30T06:18:47.315Z,0.57
2023-01-30T06:21:17.075Z,0.51
2023-01-30T06:23:47.134Z,0.60
2023-01-30T06:26:15.643Z,0.60
2023-01-30T06:28:44.481Z,0.58
2023-01-30T06:31:13.183Z,0.64
2023-01-30T06:33:41.597Z,0.65
2023-01-30T06:36:10.797Z,0.65
2023-01-30T06:38:39.232Z,0.67
2023-01-30T06:41:10.500Z,0.71
2023-01-30T06:43:38.948Z,0.71
2023-01-30T06:46:07.663Z,0.74
2023-01-30T06:48:36.164Z,0.76
2023-01-30T06:51:04.807Z,0.78
2023-01-30T06:53:36.869Z,0.76
2023-01-30T06:56:05.557Z,0.78
2023-01-30T06:58:35.474Z,0.83
2023-01-30T07:01:03.969Z,0.85
2023-01-30T07:03:32.454Z,0.92
2023-01-30T07:06:01.089Z,0.93
2023-01-30T07:08:29.536Z,0.92
2023-01-30T07:10:58.319Z,0.98
2023-01-30T07:13:26.899Z,0.94
2023-01-30T07:15:58.264Z,0.98
2023-01-30T07:18:26.748Z,0.98
2023-01-30T07:20:55.325Z,1.00
2023-01-30T07:23:29.687Z,1.03
2023-01-30T07:25:58.249Z,1.05
2023-01-30T07:28:30.042Z,1.08
2023-01-30T07:31:02.478Z,1.05
2023-01-30T07:33:31.379Z,1.10
2023-01-30T07:35:59.870Z,1.09
2023-01-30T07:38:28.547Z,1.12
2023-01-30T07:40:59.404Z,1.15
2023-01-30T07:43:28.085Z,1.12
2023-01-30T07:45:56.523Z,1.15
2023-01-30T07:48:26.492Z,1.11
2023-01-30T07:50:57.978Z,1.17
2023-01-30T07:53:26.478Z,1.06
2023-01-30T07:55:55.005Z,1.15
2023-01-30T07:58:23.901Z,1.17
2023-01-30T08:00:56.635Z,1.16
2023-01-30T08:03:26.576Z,1.17
2023-01-30T08:05:55.564Z,1.16
2023-01-30T08:08:24.191Z,1.13
2023-01-30T08:10:52.678Z,1.18
2023-01-30T08:13:21.282Z,1.21
2023-01-30T08:15:50.740Z,1.20
2023-01-30T08:18:20.407Z,1.21
2023-01-30T08:20:52.417Z,1.19
2023-01-30T08:23:23.533Z,1.24
2023-01-30T08:25:56.713Z,1.28
2023-01-30T08:28:27.868Z,1.27
2023-01-30T08:30:59.414Z,1.35
2023-01-30T08:33:29.011Z,1.40
2023-01-30T08:35:58.899Z,1.46
2023-01-30T08:38:27.308Z,1.47
2023-01-30T08:40:57.339Z,1.50
2023-01-30T08:43:25.848Z,1.56
2023-01-30T08:45:55.280Z,1.58
2023-01-30T08:48:24.026Z,1.62
2023-01-30T08:50:53.966Z,1.69
2023-01-30T08:53:23.964Z,1.72
2023-01-30T08:55:53.012Z,1.76
2023-01-30T08:58:21.993Z,1.75
2023-01-30T09:00:50.824Z,1.82
2023-01-30T09:03:20.039Z,1.78
2023-01-30T09:05:48.673Z,1.73
2023-01-30T09:08:17.082Z,1.72
2023-01-30T09:10:46.876Z,1.65
2023-01-30T09:13:15.359Z,1.73
2023-01-30T09:15:43.943Z,1.72
2023-01-30T09:18:12.425Z,1.65
2023-01-30T09:20:40.929Z,1.65
2023-01-30T09:23:09.492Z,1.71
2023-01-30T09:25:37.938Z,1.68
2023-01-30T09:28:08.282Z,1.70
2023-01-30T09:30:36.858Z,1.69
2023-01-30T09:33:05.486Z,1.70
2023-01-30T09:35:33.947Z,1.73
2023-01-30T09:38:03.225Z,1.73
2023-01-30T09:40:34.250Z,1.76
2023-01-30T09:43:26.587Z,1.72
2023-01-30T09:46:12.166Z,1.71
2023-01-30T09:48:49.532Z,1.75
2023-01-30T09:51:41.236Z,1.79
2023-01-30T09:54:24.660Z,1.79
2023-01-30T09:57:01.216Z,1.84
2023-01-30T09:59:38.225Z,1.87
2023-01-30T10:02:25.571Z,1.86
2023-01-30T10:05:01.854Z,1.80
2023-01-30T10:07:43.249Z,1.87
2023-01-30T10:10:19.519Z,1.79
2023-01-30T10:12:57.021Z,1.81
2023-01-30T10:15:36.019Z,1.77
2023-01-30T10:18:42.013Z,1.73
2023-01-30T10:21:21.714Z,1.71
2023-01-30T10:24:07.543Z,1.66
2023-01-30T10:26:36.339Z,1.68
2023-01-30T10:29:09.982Z,1.66
2023-01-30T10:31:46.609Z,1.65
2023-01-30T10:34:21.946Z,1.67
2023-01-30T10:36:56.108Z,1.64
2023-01-30T10:39:32.972Z,1.67
2023-01-30T10:42:10.895Z,1.65
2023-01-30T10:44:42.914Z,1.71
2023-01-30T10:47:46.222Z,1.74
2023-01-30T10:50:18.519Z,1.70
2023-01-30T10:52:55.521Z,1.74
2023-01-30T10:55:37.649Z,1.70
2023-01-30T10:58:16.848Z,1.75
2023-01-30T11:00:52.007Z,1.76
2023-01-30T11:03:30.572Z,1.79
2023-01-30T11:06:02.689Z,1.82
2023-01-30T11:08:34.537Z,1.85
2023-01-30T11:11:21.778Z,1.85
2023-01-30T11:13:50.168Z,1.95
2023-01-30T11:16:19.049Z,1.96
2023-01-30T11:21:44.760Z,2.08
2023-01-30T11:24:17.379Z,2.10
2023-01-30T11:26:48.009Z,2.17
2023-01-30T11:29:27.601Z,2.21
2023-01-30T11:31:56.571Z,2.17
2023-01-30T11:34:26.734Z,2.26
2023-01-30T11:36:55.130Z,2.30
2023-01-30T11:39:30.118Z,2.35
2023-01-30T11:42:05.118Z,2.42
2023-01-30T11:44:36.171Z,2.42
2023-01-30T11:47:09.754Z,2.49
2023-01-30T11:49:46.617Z,2.52
2023-01-30T11:52:19.771Z,2.58
2023-01-30T11:54:49.807Z,2.61
2023-01-30T11:57:21.455Z,2.72
2023-01-30T11:59:56.842Z,2.74
2023-01-30T12:02:27.282Z,2.80
2023-01-30T12:05:01.134Z,2.85
2023-01-30T12:07:31.000Z,2.91
2023-01-30T12:10:00.244Z,2.93
2023-01-30T12:12:34.470Z,3.01
2023-01-30T12:15:14.822Z,3.00
2023-01-30T12:17:48.618Z,3.08
2023-01-30T12:20:27.493Z,3.10
2023-01-30T12:23:05.385Z,3.10
2023-01-30T12:25:40.367Z,3.17
2023-01-30T12:28:20.859Z,3.28
2023-01-30T12:30:53.033Z,3.29
2023-01-30T12:33:21.566Z,3.39
2023-01-30T12:36:02.485Z,3.49
2023-01-30T12:38:48.411Z,3.54
2023-01-30T12:41:29.973Z,3.70
2023-01-30T12:44:26.840Z,3.74
2023-01-30T12:47:08.994Z,3.81
2023-01-30T12:49:50.513Z,3.84
2023-01-30T12:52:41.117Z,3.94
2023-01-30T12:55:24.181Z,3.98
2023-01-30T12:57:58.485Z,4.03
2023-01-30T13:00:41.990Z,4.09
2023-01-30T13:03:25.055Z,4.13
2023-01-30T13:06:04.271Z,4.15
2023-01-30T13:08:52.717Z,4.15
2023-01-30T13:11:41.130Z,4.17
2023-01-30T13:14:21.117Z,4.18
2023-01-30T13:17:07.169Z,4.27
2023-01-30T13:19:43.264Z,4.28
2023-01-30T13:22:19.692Z,4.28
2023-01-30T13:25:03.871Z,4.31
2023-01-30T13:27:38.462Z,4.36
2023-01-30T13:30:10.717Z,4.42
2023-01-30T13:32:42.918Z,4.46
2023-01-30T13:35:18.788Z,4.40
2023-01-30T13:37:49.795Z,4.38
2023-01-30T13:40:23.114Z,4.32
2023-01-30T13:42:57.150Z,4.31
2023-01-30T13:45:30.021Z,4.32
2023-01-30T13:48:16.169Z,4.36
2023-01-30T13:51:02.366Z,4.37
2023-01-30T13:53:40.031Z,4.45
2023-01-30T13:56:39.614Z,4.62
2023-01-30T13:59:15.898Z,4.58
2023-01-30T14:02:26.283Z,4.62
2023-01-30T14:04:55.354Z,4.60
2023-01-30T14:07:28.985Z,4.61
2023-01-30T14:10:15.481Z,4.61
2023-01-30T14:12:48.732Z,4.62
2023-01-30T14:15:29.232Z,4.68
2023-01-30T14:18:03.514Z,4.69
2023-01-30T14:20:33.743Z,4.65
2023-01-30T14:23:03.740Z,4.68
2023-01-30T14:25:49.273Z,4.74
2023-01-30T14:28:51.931Z,4.77
2023-01-30T14:31:56.709Z,4.89
2023-01-30T14:34:50.052Z,4.92
2023-01-30T14:37:47.375Z,5.02
2023-01-30T14:40:36.059Z,5.07
2023-01-30T14:43:49.725Z,4.98
2023-01-30T14:46:55.781Z,4.90
2023-01-30T14:49:32.611Z,4.85
2023-01-30T14:52:02.411Z,4.85
2023-01-30T14:54:42.462Z,4.77
2023-01-30T14:57:25.012Z,4.83
2023-01-30T15:00:19.155Z,4.81
2023-01-30T15:02:53.341Z,4.78
2023-01-30T15:05:28.644Z,4.75
2023-01-30T15:08:04.179Z,4.73
2023-01-30T15:10:46.577Z,4.80
2023-01-30T15:13:35.193Z,4.78
2023-01-30T15:16:21.663Z,4.79
2023-01-30T15:19:04.555Z,4.76
2023-01-30T15:22:04.020Z,4.83
2023-01-30T15:25:02.789Z,4.80
2023-01-30T15:27:35.788Z,4.79
2023-01-30T15:30:21.873Z,4.78
2023-01-30T15:32:50.572Z,4.78
2023-01-30T15:35:28.580Z,4.81
2023-01-30T15:37:58.405Z,4.79
2023-01-30T15:40:30.302Z,4.75
2023-01-30T15:43:29.867Z,4.81
2023-01-30T15:46:11.957Z,4.74
2023-01-30T15:48:56.421Z,4.75
2023-01-30T15:51:29.145Z,4.73
2023-01-30T15:53:59.642Z,4.74
2023-01-30T15:56:30.845Z,4.68
2023-01-30T15:59:01.932Z,4.76
2023-01-30T16:01:30.837Z,4.78
2023-01-30T16:04:00.678Z,4.79
2023-01-30T16:06:34.456Z,4.77
2023-01-30T16:09:05.081Z,4.82
2023-01-30T16:11:36.129Z,4.82
2023-01-30T16:14:04.901Z,4.81
2023-01-30T16:16:36.862Z,4.74
2023-01-30T16:19:09.361Z,4.79
2023-01-30T16:21:41.544Z,4.80
2023-01-30T16:24:18.004Z,4.82
2023-01-30T16:26:50.123Z,4.87
2023-01-30T16:29:22.041Z,4.85
2023-01-30T16:31:52.847Z,4.82
2023-01-30T16:34:30.318Z,4.83
2023-01-30T16:37:04.789Z,4.83
2023-01-30T16:39:35.317Z,4.87
2023-01-30T16:42:05.561Z,4.91
2023-01-30T16:44:34.031Z,4.88
2023-01-30T16:47:06.424Z,4.83
2023-01-30T16:49:48.317Z,4.92
2023-01-30T16:52:22.025Z,4.92
2023-01-30T16:54:53.561Z,4.93
2023-01-30T16:57:36.786Z,4.92
2023-01-30T17:00:18.829Z,4.95
2023-01-30T17:02:52.787Z,4.95
2023-01-30T17:05:23.835Z,4.94
2023-01-30T17:07:56.307Z,4.89
2023-01-30T17:10:53.775Z,4.93
2023-01-30T17:13:33.922Z,4.97
2023-01-30T17:16:28.916Z,4.97
2023-01-30T17:18:58.448Z,4.92
2023-01-30T17:21:32.016Z,4.96
2023-01-30T17:24:03.878Z,5.00
2023-01-30T17:26:33.544Z,4.98
2023-01-30T17:29:02.204Z,4.97
2023-01-30T17:31:30.992Z,4.99
2023-01-30T17:33:59.967Z,4.99
2023-01-30T17:36:30.825Z,4.98
2023-01-30T17:39:02.314Z,5.09
2023-01-30T17:41:33.650Z,5.07
2023-01-30T17:44:02.130Z,5.03
2023-01-30T17:46:36.707Z,4.87
2023-01-30T17:49:05.641Z,4.78
2023-01-30T17:51:34.350Z,4.72
2023-01-30T17:54:06.325Z,4.72
2023-01-30T17:56:38.341Z,4.72
2023-01-30T17:59:11.149Z,4.63
2023-01-30T18:01:40.068Z,4.66
2023-01-30T18:04:08.726Z,4.69
2023-01-30T18:06:38.233Z,4.68
2023-01-30T18:09:09.297Z,4.54
2023-01-30T18:11:37.788Z,4.61
2023-01-30T18:14:07.231Z,4.57
2023-01-30T18:16:35.884Z,4.45
2023-01-30T18:19:06.349Z,4.40
2023-01-30T18:21:36.325Z,4.39
2023-01-30T18:24:04.908Z,4.37
2023-01-30T18:26:35.381Z,4.31
2023-01-30T18:29:03.933Z,4.24
2023-01-30T18:31:33.518Z,4.21
2023-01-30T18:34:02.123Z,4.17
2023-01-30T18:36:30.964Z,4.18
2023-01-30T18:38:59.645Z,4.13
2023-01-30T18:41:32.305Z,4.17
2023-01-30T18:44:03.995Z,4.15
2023-01-30T18:46:33.025Z,4.02
2023-01-30T18:49:01.778Z,4.09
2023-01-30T18:51:34.102Z,4.05
2023-01-30T18:54:03.073Z,4.00
2023-01-30T18:56:33.427Z,4.00
2023-01-30T18:59:05.451Z,4.00
2023-01-30T19:01:36.908Z,3.96
2023-01-30T19:04:06.796Z,3.94
2023-01-30T19:06:37.781Z,3.92
2023-01-30T19:09:07.386Z,3.91
2023-01-30T19:11:53.766Z,3.86
2023-01-30T19:14:23.745Z,3.81
2023-01-30T19:16:52.580Z,3.81
2023-01-30T19:19:21.503Z,3.80
2023-01-30T19:21:52.483Z,3.78
2023-01-30T19:24:21.361Z,3.77
2023-01-30T19:26:49.950Z,3.79
2023-01-30T19:29:18.460Z,3.74
2023-01-30T19:31:48.879Z,3.74
2023-01-30T19:34:17.420Z,3.84
2023-01-30T19:36:45.960Z,3.88
2023-01-30T19:39:14.707Z,3.90
2023-01-30T19:41:43.250Z,3.89
2023-01-30T19:44:13.912Z,3.92
2023-01-30T19:46:43.364Z,3.92
2023-01-30T19:49:14.171Z,3.95
2023-01-30T19:51:43.959Z,3.92
2023-01-30T19:54:13.219Z,3.92
2023-01-30T19:56:42.787Z,3.95
2023-01-30T19:59:16.175Z,3.96
2023-01-30T20:01:44.885Z,4.01
2023-01-30T20:04:15.089Z,4.06
2023-01-30T20:06:46.297Z,4.30
2023-01-30T20:09:16.345Z,4.18
2023-01-30T20:11:45.161Z,4.16
2023-01-30T20:14:13.853Z,4.15
2023-01-30T20:16:42.666Z,4.18
2023-01-30T20:19:16.081Z,4.13
2023-01-30T20:21:45.750Z,4.14
2023-01-30T20:24:14.980Z,4.09
2023-01-30T20:26:47.148Z,4.09
2023-01-30T20:29:18.178Z,4.07
2023-01-30T20:31:47.063Z,4.06
2023-01-30T20:34:18.413Z,3.98
2023-01-30T20:36:46.944Z,3.92
2023-01-30T20:39:17.146Z,3.90
2023-01-30T20:41:45.919Z,3.77
2023-01-30T20:44:15.662Z,3.73
2023-01-30T20:46:46.136Z,3.65
2023-01-30T20:49:18.091Z,3.58
2023-01-30T20:51:47.290Z,3.58
2023-01-30T20:54:16.931Z,3.53
2023-01-30T20:56:47.680Z,3.51
2023-01-30T20:59:18.406Z,3.44
2023-01-30T21:01:47.521Z,3.51
2023-01-30T21:04:20.909Z,3.42
2023-01-30T21:06:49.444Z,3.54
2023-01-30T21:09:19.764Z,3.56
2023-01-30T21:11:49.197Z,3.51
2023-01-30T21:14:18.678Z,3.62
2023-01-30T21:16:47.767Z,3.59
2023-01-30T21:19:19.045Z,3.67
2023-01-30T21:21:51.285Z,3.68
2023-01-30T21:24:21.901Z,3.69
2023-01-30T21:26:50.757Z,3.69
2023-01-30T21:29:24.667Z,3.68
2023-01-30T21:31:53.922Z,3.72
2023-01-30T21:34:24.012Z,3.74
2023-01-30T21:37:06.754Z,3.78
2023-01-30T21:39:52.967Z,3.78
2023-01-30T21:42:39.303Z,3.83
2023-01-30T21:45:08.760Z,3.81
2023-01-30T21:47:37.353Z,3.86
2023-01-30T21:50:08.121Z,3.86
2023-01-30T21:52:38.081Z,3.89
2023-01-30T21:55:07.174Z,3.96
2023-01-30T21:57:35.707Z,3.96
2023-01-30T22:00:04.292Z,3.97
2023-01-30T22:02:32.748Z,4.04
2023-01-30T22:05:01.239Z,4.08
2023-01-30T22:07:31.826Z,4.07
2023-01-30T22:10:01.654Z,4.07
2023-01-30T22:12:31.873Z,4.13
2023-01-30T22:15:00.318Z,4.13
2023-01-30T22:17:28.834Z,4.16
2023-01-30T22:19:57.469Z,4.16
2023-01-30T22:22:26.544Z,4.15
2023-01-30T22:24:56.877Z,4.19
2023-01-30T22:27:25.348Z,4.22
2023-01-30T22:29:54.044Z,4.23
2023-01-30T22:32:22.647Z,4.25
2023-01-30T22:34:51.181Z,4.25
2023-01-30T22:37:19.666Z,4.20
2023-01-30T22:39:48.246Z,4.23
2023-01-30T22:42:19.254Z,4.25
2023-01-30T22:44:47.744Z,4.24
2023-01-30T22:47:16.470Z,4.25
2023-01-30T22:49:44.994Z,4.19
2023-01-30T22:52:17.704Z,4.19
2023-01-30T22:54:46.173Z,4.23
2023-01-30T22:57:17.308Z,4.23
2023-01-30T22:59:48.068Z,4.26
2023-01-30T23:02:16.552Z,4.32
2023-01-30T23:04:44.926Z,4.34
2023-01-30T23:07:14.808Z,4.29
2023-01-30T23:09:43.221Z,4.33
2023-01-30T23:12:28.920Z,4.29
2023-01-30T23:14:59.132Z,4.33
2023-01-30T23:17:45.032Z,4.35
2023-01-30T23:20:14.073Z,4.33
2023-01-30T23:22:42.873Z,4.33
2023-01-30T23:25:11.704Z,4.30
2023-01-30T23:27:40.140Z,4.24
2023-01-30T23:30:11.792Z,4.25
2023-01-30T23:32:40.227Z,4.25
2023-01-30T23:35:09.356Z,4.21
2023-01-30T23:37:51.729Z,4.31
2023-01-30T23:40:21.167Z,4.31
2023-01-30T23:42:49.690Z,4.34
2023-01-30T23:45:19.784Z,4.35
2023-01-30T23:47:48.639Z,4.26
2023-01-30T23:50:17.292Z,4.33
2023-01-30T23:52:45.848Z,4.33
2023-01-30T23:55:14.585Z,4.37
2023-01-30T23:57:43.413Z,4.42
